Aviation Digital Data Service (ADDS)

Output produced by METARs form (1109 UTC 22 January 2022)
found at http://aviationweather.gov/metar/data/
 
METAR text: KBDU 221055Z AUTO 00000KT 10SM CLR M02/M04 A3029 RMK AO2
Conditions at: KBDU (BOULDER MUNI , CO, US) observed 1055 UTC 22 January 2022
Temperature: -2.0°C (28°F)
Dewpoint: -4.0°C (25°F) [RH = 86%]
Pressure (altimeter): 30.29 inches Hg (1025.8 mb)
Winds: calm
Visibility: 10 or more miles (16+ km)
Ceiling: at least 12,000 feet AGL
Clouds: sky clear below 12,000 feet AGL
Weather: automated observation with no human augmentation;
there may or may not be significant weather present at this time

METAR text: KBDU 221035Z AUTO 22004KT 10SM SCT050 M03/M04 A3030 RMK AO2
Conditions at: KBDU (BOULDER MUNI , CO, US) observed 1035 UTC 22 January 2022
Temperature: -3.0°C (27°F)
Dewpoint: -4.0°C (25°F) [RH = 93%]
Pressure (altimeter): 30.30 inches Hg (1026.2 mb)
Winds: from the SW (220 degrees) at 5 MPH (4 knots; 2.1 m/s)
Visibility: 10 or more miles (16+ km)
Ceiling: at least 12,000 feet AGL
Clouds: scattered clouds at 5000 feet AGL
Weather: automated observation with no human augmentation;
there may or may not be significant weather present at this time

METAR text: KBDU 221015Z AUTO 21005KT 10SM SCT055 M03/M03 A3031 RMK AO2
Conditions at: KBDU (BOULDER MUNI , CO, US) observed 1015 UTC 22 January 2022
Temperature: -3.0°C (27°F)
Dewpoint: -3.0°C (27°F) [RH = 100%]
Pressure (altimeter): 30.31 inches Hg (1026.5 mb)
Winds: from the SSW (210 degrees) at 6 MPH (5 knots; 2.6 m/s)
Visibility: 10 or more miles (16+ km)
Ceiling: at least 12,000 feet AGL
Clouds: scattered clouds at 5500 feet AGL
Weather: automated observation with no human augmentation;
there may or may not be significant weather present at this time